createdAt,value
2022-10-11T00:00:24.512Z,0.80
2022-10-11T00:03:02.510Z,1.10
2022-10-11T00:05:43.959Z,0.90
2022-10-11T00:08:22.433Z,0.90
2022-10-11T00:11:01.903Z,0.80
2022-10-11T00:13:40.045Z,0.90
2022-10-11T00:16:18.923Z,0.90
2022-10-11T00:18:58.695Z,1.13
2022-10-11T00:32:03.378Z,0.90
2022-10-11T00:34:42.243Z,0.87
2022-10-11T00:37:21.340Z,0.97
2022-10-11T00:40:02.405Z,1.00
2022-10-11T00:53:12.831Z,0.90
2022-10-11T00:55:59.318Z,0.90
2022-10-11T00:58:39.203Z,1.10
2022-10-11T01:01:18.446Z,1.00
2022-10-11T01:03:56.577Z,0.80
2022-10-11T01:17:09.093Z,0.90
2022-10-11T01:19:53.159Z,0.87
2022-10-11T01:22:41.952Z,0.90
2022-10-11T01:25:32.776Z,0.90
2022-10-11T01:28:13.527Z,1.00
2022-10-11T01:30:52.279Z,0.90
2022-10-11T01:33:49.247Z,0.80
2022-10-11T01:36:34.471Z,0.90
2022-10-11T01:39:34.720Z,1.40
2022-10-11T01:42:13.478Z,0.80
2022-10-11T01:44:52.826Z,0.90
2022-10-11T01:47:30.643Z,1.07
2022-10-11T01:50:28.949Z,1.00
2022-10-11T01:53:10.811Z,0.90
2022-10-11T01:56:02.652Z,1.00
2022-10-11T01:59:03.438Z,1.10
2022-10-11T02:01:54.765Z,0.83
2022-10-11T02:04:38.437Z,1.10
2022-10-11T02:07:22.421Z,0.93
2022-10-11T02:10:07.606Z,1.00
2022-10-11T02:12:53.053Z,1.13
2022-10-11T02:15:41.053Z,0.90
2022-10-11T02:18:23.788Z,0.80
2022-10-11T02:21:04.141Z,0.80
2022-10-11T02:23:50.656Z,0.90
2022-10-11T02:26:30.807Z,0.80
2022-10-11T02:29:10.563Z,0.90
2022-10-11T02:42:30.749Z,0.80
2022-10-11T02:45:20.487Z,0.97
2022-10-11T02:47:59.570Z,0.90
2022-10-11T03:01:02.660Z,0.90
2022-10-11T03:14:06.089Z,0.80
2022-10-11T03:16:45.538Z,0.90
2022-10-11T03:19:24.640Z,0.80
2022-10-11T03:22:02.893Z,0.90
2022-10-11T03:24:41.700Z,0.80
2022-10-11T03:27:19.263Z,0.87
2022-10-11T03:29:57.858Z,0.80
2022-10-11T03:32:36.008Z,0.80
2022-10-11T03:35:12.772Z,0.90
2022-10-11T03:38:03.922Z,0.90
2022-10-11T03:40:43.684Z,0.80
2022-10-11T03:43:23.905Z,0.90
2022-10-11T03:56:26.511Z,0.70
2022-10-11T03:59:04.393Z,0.73
2022-10-11T04:01:43.326Z,0.80
2022-10-11T04:04:23.059Z,0.80
2022-10-11T04:07:02.817Z,0.93
2022-10-11T04:09:42.722Z,0.87
2022-10-11T04:12:21.810Z,0.70
2022-10-11T04:15:00.603Z,0.70
2022-10-11T04:17:40.148Z,0.70
2022-10-11T04:20:23.406Z,0.80
2022-10-11T04:23:02.576Z,0.80
2022-10-11T04:36:06.931Z,0.80
2022-10-11T04:49:09.946Z,0.60
2022-10-11T04:51:50.912Z,1.00
2022-10-11T04:54:29.466Z,0.60
2022-10-11T04:57:08.176Z,0.90
2022-10-11T04:59:50.205Z,0.80
2022-10-11T05:02:28.742Z,0.87
2022-10-11T05:05:07.713Z,0.80
2022-10-11T05:07:46.726Z,0.90
2022-10-11T05:10:24.854Z,0.90
2022-10-11T05:13:03.040Z,0.87
2022-10-11T05:15:42.017Z,0.90
2022-10-11T05:18:33.551Z,0.90
2022-10-11T05:21:17.879Z,0.70
2022-10-11T05:23:56.425Z,0.90
2022-10-11T05:26:38.423Z,0.90
2022-10-11T05:29:17.487Z,0.80
2022-10-11T05:31:56.693Z,1.20
2022-10-11T05:34:34.822Z,0.90
2022-10-11T05:37:13.071Z,0.80
2022-10-11T05:39:52.001Z,0.80
2022-10-11T05:42:31.058Z,1.00
2022-10-11T05:55:41.397Z,0.70
2022-10-11T05:58:20.021Z,0.90
2022-10-11T06:00:58.930Z,1.00
2022-10-11T06:03:38.651Z,0.70
2022-10-11T06:06:18.512Z,0.70
2022-10-11T06:08:57.567Z,0.90
2022-10-11T06:11:35.847Z,0.80
2022-10-11T06:14:27.767Z,0.87
2022-10-11T06:28:07.672Z,1.10
2022-10-11T06:31:01.386Z,1.00
2022-10-11T06:34:11.321Z,0.90
2022-10-11T06:37:03.987Z,1.13
2022-10-11T06:39:56.584Z,1.00
2022-10-11T06:42:52.126Z,1.20
2022-10-11T06:45:44.319Z,1.00
2022-10-11T06:48:41.647Z,1.00
2022-10-11T06:51:45.301Z,1.50
2022-10-11T06:54:44.921Z,0.90
2022-10-11T06:57:49.097Z,1.20
2022-10-11T07:00:45.406Z,1.10
2022-10-11T07:03:57.967Z,0.90
2022-10-11T07:06:51.633Z,1.00
2022-10-11T07:09:58.425Z,0.93
2022-10-11T07:12:53.141Z,1.20
2022-10-11T07:26:11.450Z,1.00
2022-10-11T07:29:06.080Z,1.27
2022-10-11T07:32:05.002Z,1.10
2022-10-11T07:35:14.967Z,0.90
2022-10-11T07:38:25.924Z,1.20
2022-10-11T07:41:19.033Z,1.07
2022-10-11T07:44:11.578Z,1.00
2022-10-11T07:57:35.027Z,1.17
2022-10-11T08:00:38.013Z,0.93
2022-10-11T08:03:33.644Z,1.10
2022-10-11T08:06:32.736Z,1.30
2022-10-11T08:09:28.413Z,1.10
2022-10-11T08:12:23.333Z,1.00
2022-10-11T08:15:22.041Z,0.90
2022-10-11T08:18:17.353Z,1.33
2022-10-11T08:21:27.805Z,1.27
2022-10-11T08:24:24.297Z,0.90
2022-10-11T08:37:48.595Z,1.00
2022-10-11T08:40:52.504Z,1.00
2022-10-11T08:43:48.192Z,1.10
2022-10-11T08:46:46.330Z,0.97
2022-10-11T08:49:55.471Z,1.00
2022-10-11T08:53:02.363Z,1.03
2022-10-11T08:55:56.039Z,1.47
2022-10-11T08:58:56.537Z,1.13
2022-10-11T09:02:01.958Z,1.10
2022-10-11T09:04:39.938Z,0.93
2022-10-11T09:07:23.677Z,0.87
2022-10-11T09:10:24.767Z,1.10
2022-10-11T09:13:03.037Z,0.90
2022-10-11T09:15:56.558Z,1.00
2022-10-11T09:18:42.736Z,1.10
2022-10-11T09:21:20.546Z,1.30
2022-10-11T09:23:47.826Z,1.27
2022-10-11T09:26:20.186Z,0.87
2022-10-11T09:28:58.676Z,1.00
2022-10-11T09:31:28.553Z,1.40
2022-10-11T09:33:56.515Z,1.20
2022-10-11T09:36:24.122Z,1.03
2022-10-11T09:38:55.509Z,1.10
2022-10-11T09:41:26.161Z,1.07
2022-10-11T09:43:53.457Z,1.00
2022-10-11T09:46:23.369Z,1.30
2022-10-11T09:48:51.157Z,1.37
2022-10-11T09:51:20.552Z,1.10
2022-10-11T09:53:50.648Z,0.90
2022-10-11T09:56:17.998Z,0.90
2022-10-11T09:58:45.374Z,0.90
2022-10-11T10:01:14.149Z,1.00
2022-10-11T10:03:42.578Z,0.87
2022-10-11T10:06:23.856Z,1.30
2022-10-11T10:08:51.452Z,1.10
2022-10-11T10:11:19.364Z,1.30
2022-10-11T10:13:46.690Z,1.30
2022-10-11T10:16:25.490Z,1.00
2022-10-11T10:18:54.893Z,0.90
2022-10-11T10:21:42.442Z,1.37
2022-10-11T10:24:17.826Z,1.40
2022-10-11T10:27:05.263Z,1.20
2022-10-11T10:29:32.569Z,1.40
2022-10-11T10:32:13.828Z,1.10
2022-10-11T10:34:51.083Z,1.60
2022-10-11T10:37:30.635Z,1.17
2022-10-11T10:40:09.126Z,1.50
2022-10-11T10:42:36.525Z,1.57
2022-10-11T10:45:09.722Z,1.50
2022-10-11T10:47:45.049Z,1.40
2022-10-11T10:50:17.121Z,1.70
2022-10-11T10:52:59.468Z,1.60
2022-10-11T10:55:40.588Z,1.60
2022-10-11T10:58:09.624Z,1.50
2022-10-11T11:00:44.940Z,1.70
2022-10-11T11:03:22.151Z,1.67
2022-10-11T11:05:54.800Z,1.77
2022-10-11T11:08:27.966Z,1.90
2022-10-11T11:11:02.810Z,1.67
2022-10-11T11:13:33.131Z,1.70
2022-10-11T11:16:11.723Z,1.63
2022-10-11T11:18:42.961Z,1.47
2022-10-11T11:21:16.378Z,1.67
2022-10-11T11:23:51.933Z,1.70
2022-10-11T11:26:22.959Z,1.40
2022-10-11T11:28:50.289Z,1.70
2022-10-11T11:31:43.649Z,2.00
2022-10-11T11:34:19.822Z,1.40
2022-10-11T11:36:48.765Z,1.00
2022-10-11T11:39:31.392Z,1.27
2022-10-11T11:42:08.189Z,1.00
2022-10-11T11:44:38.850Z,1.20
2022-10-11T11:47:17.933Z,1.40
2022-10-11T11:49:59.325Z,1.10
2022-10-11T11:52:28.973Z,1.10
2022-10-11T11:55:09.693Z,1.20
2022-10-11T11:57:43.175Z,1.40
2022-10-11T12:00:16.215Z,1.00
2022-10-11T12:02:43.528Z,1.00
2022-10-11T12:05:11.777Z,1.30
2022-10-11T12:07:53.868Z,1.17
2022-10-11T12:10:32.542Z,1.13
2022-10-11T12:13:09.060Z,1.30
2022-10-11T12:15:36.602Z,0.93
2022-10-11T12:18:06.201Z,1.00
2022-10-11T12:20:41.249Z,1.10
2022-10-11T12:23:27.513Z,1.13
2022-10-11T12:26:13.371Z,0.90
2022-10-11T12:28:43.496Z,1.40
2022-10-11T12:31:39.365Z,1.10
2022-10-11T12:34:08.608Z,1.27
2022-10-11T12:36:36.843Z,1.10
2022-10-11T12:39:19.407Z,1.20
2022-10-11T12:41:49.700Z,1.20
2022-10-11T12:44:22.806Z,1.03
2022-10-11T12:46:57.581Z,1.20
2022-10-11T12:49:32.208Z,1.10
2022-10-11T12:52:02.702Z,1.60
2022-10-11T12:54:48.521Z,1.50
2022-10-11T12:57:34.733Z,1.20
2022-10-11T13:00:20.827Z,1.20
2022-10-11T13:02:49.249Z,1.10
2022-10-11T13:05:27.184Z,1.20
2022-10-11T13:07:56.003Z,1.40
2022-10-11T13:10:43.971Z,1.30
2022-10-11T13:13:18.669Z,1.60
2022-10-11T13:15:46.121Z,0.97
2022-10-11T13:18:14.231Z,1.20
2022-10-11T13:20:42.532Z,1.10
2022-10-11T13:23:21.291Z,1.17
2022-10-11T13:25:48.825Z,1.10
2022-10-11T13:28:16.245Z,1.20
2022-10-11T13:30:46.099Z,1.70
2022-10-11T13:33:25.544Z,1.20
2022-10-11T13:35:53.410Z,1.20
2022-10-11T13:38:22.857Z,1.27
2022-10-11T13:40:51.254Z,1.43
2022-10-11T13:43:23.524Z,1.53
2022-10-11T13:45:50.954Z,1.30
2022-10-11T13:48:18.314Z,1.27
2022-10-11T13:50:52.233Z,1.27
2022-10-11T13:53:19.461Z,1.30
2022-10-11T13:55:51.771Z,1.20
2022-10-11T13:58:24.193Z,1.33
2022-10-11T14:00:59.478Z,1.40
2022-10-11T14:03:47.086Z,1.03
2022-10-11T14:06:14.444Z,1.20
2022-10-11T14:08:44.694Z,1.40
2022-10-11T14:11:12.766Z,1.20
2022-10-11T14:13:49.975Z,1.40
2022-10-11T14:16:18.142Z,1.30
2022-10-11T14:19:00.721Z,1.10
2022-10-11T14:21:46.325Z,1.07
2022-10-11T14:24:14.499Z,1.13
2022-10-11T14:26:43.147Z,1.13
2022-10-11T14:29:16.781Z,1.37
2022-10-11T14:31:44.148Z,1.20
2022-10-11T14:34:19.134Z,1.10
2022-10-11T14:36:46.923Z,1.53
2022-10-11T14:39:16.185Z,1.10
2022-10-11T14:41:43.692Z,1.37
2022-10-11T14:44:11.012Z,1.30
2022-10-11T14:46:39.266Z,1.30
2022-10-11T14:49:12.247Z,1.27
2022-10-11T14:51:40.075Z,1.33
2022-10-11T14:54:07.464Z,1.20
2022-10-11T14:56:34.809Z,1.30
2022-10-11T14:59:02.207Z,1.13
2022-10-11T15:01:29.554Z,1.27
2022-10-11T15:03:56.880Z,1.60
2022-10-11T15:06:26.996Z,1.20
2022-10-11T15:08:54.400Z,1.20
2022-10-11T15:11:22.552Z,1.10
2022-10-11T15:13:49.821Z,1.20
2022-10-11T15:16:19.567Z,1.20
2022-10-11T15:18:53.125Z,1.00
2022-10-11T15:21:21.446Z,1.20
2022-10-11T15:23:49.556Z,1.10
2022-10-11T15:26:18.124Z,1.20
2022-10-11T15:28:45.604Z,1.10
2022-10-11T15:31:13.288Z,1.10
2022-10-11T15:33:40.623Z,1.10
2022-10-11T15:36:09.393Z,0.90
2022-10-11T15:38:37.011Z,1.13
2022-10-11T15:41:04.728Z,1.27
2022-10-11T15:43:32.071Z,1.20
2022-10-11T15:45:59.369Z,1.10
2022-10-11T15:48:27.227Z,1.00
2022-10-11T15:50:55.046Z,1.00
2022-10-11T15:53:24.798Z,1.07
2022-10-11T15:55:53.535Z,0.90
2022-10-11T15:58:24.781Z,1.23
2022-10-11T16:00:54.184Z,0.93
2022-10-11T16:03:22.703Z,1.00
2022-10-11T16:05:50.552Z,0.90
2022-10-11T16:08:18.037Z,1.10
2022-10-11T16:10:45.297Z,1.15
2022-10-11T16:13:12.720Z,1.23
2022-10-11T16:15:40.935Z,1.10
2022-10-11T16:18:09.340Z,1.30
2022-10-11T16:20:40.457Z,1.03
2022-10-11T16:23:07.794Z,1.30
2022-10-11T16:25:35.402Z,1.00
2022-10-11T16:28:02.755Z,1.27
2022-10-11T16:30:30.293Z,1.07
2022-10-11T16:32:57.803Z,0.90
2022-10-11T16:35:28.951Z,1.20
2022-10-11T16:37:58.927Z,1.00
2022-10-11T16:40:28.153Z,1.10
2022-10-11T16:42:55.411Z,1.27
2022-10-11T16:45:22.675Z,0.90
2022-10-11T16:47:50.106Z,1.20
2022-10-11T16:50:17.415Z,1.00
2022-10-11T16:52:44.695Z,1.10
2022-10-11T16:55:12.057Z,1.47
2022-10-11T16:57:39.334Z,1.10
2022-10-11T17:00:08.601Z,1.20
2022-10-11T17:02:35.916Z,0.80
2022-10-11T17:05:03.905Z,0.90
2022-10-11T17:07:31.895Z,1.10
2022-10-11T17:10:01.080Z,1.10
2022-10-11T17:12:28.728Z,0.80
2022-10-11T17:14:56.414Z,0.70
2022-10-11T17:17:23.781Z,0.97
2022-10-11T17:19:51.335Z,1.13
2022-10-11T17:22:19.942Z,0.80
2022-10-11T17:24:47.433Z,1.10
2022-10-11T17:27:14.884Z,0.90
2022-10-11T17:29:42.289Z,1.13
2022-10-11T17:32:09.645Z,0.80
2022-10-11T17:34:36.900Z,0.87
2022-10-11T17:37:04.284Z,1.20
2022-10-11T17:39:31.576Z,0.90
2022-10-11T17:42:03.320Z,0.70
2022-10-11T17:44:30.607Z,0.90
2022-10-11T17:46:57.912Z,1.10
2022-10-11T17:49:25.687Z,1.00
2022-10-11T17:51:53.171Z,0.93
2022-10-11T17:54:20.515Z,0.93
2022-10-11T17:56:47.827Z,0.83
2022-10-11T17:59:20.959Z,0.83
2022-10-11T18:01:49.045Z,1.10
2022-10-11T18:04:16.937Z,0.83
2022-10-11T18:06:45.098Z,0.90
2022-10-11T18:09:13.040Z,1.00
2022-10-11T18:11:40.405Z,0.87
2022-10-11T18:14:07.825Z,1.00
2022-10-11T18:16:35.786Z,1.07
2022-10-11T18:19:04.091Z,0.93
2022-10-11T18:21:34.668Z,0.90
2022-10-11T18:24:03.169Z,0.87
2022-10-11T18:26:31.050Z,0.80
2022-10-11T18:28:59.062Z,0.97
2022-10-11T18:31:27.767Z,0.80
2022-10-11T18:33:55.184Z,0.90
2022-10-11T18:36:25.306Z,1.00
2022-10-11T18:38:53.949Z,1.00
2022-10-11T18:41:22.519Z,1.27
2022-10-11T18:43:50.448Z,0.80
2022-10-11T18:46:17.969Z,1.20
2022-10-11T18:48:46.248Z,1.00
2022-10-11T18:51:15.333Z,1.17
2022-10-11T18:53:43.064Z,1.20
2022-10-11T18:56:11.476Z,1.00
2022-10-11T18:58:39.705Z,1.00
2022-10-11T19:01:11.420Z,1.03
2022-10-11T19:03:38.787Z,1.00
2022-10-11T19:06:12.763Z,1.27
2022-10-11T19:08:40.131Z,1.50
2022-10-11T19:11:08.196Z,1.20
2022-10-11T19:13:36.104Z,1.47
2022-10-11T19:16:07.508Z,1.60
2022-10-11T19:18:35.299Z,1.20
2022-10-11T19:21:03.973Z,1.20
2022-10-11T19:23:35.426Z,1.07
2022-10-11T19:26:03.047Z,1.30
2022-10-11T19:28:30.669Z,1.20
2022-10-11T19:31:02.325Z,1.17
2022-10-11T19:33:29.738Z,1.10
2022-10-11T19:35:57.499Z,1.40
2022-10-11T19:38:24.952Z,1.53
2022-10-11T19:40:52.687Z,1.33
2022-10-11T19:43:20.095Z,1.07
2022-10-11T19:45:47.410Z,1.13
2022-10-11T19:48:14.719Z,1.40
2022-10-11T19:50:41.984Z,1.30
2022-10-11T19:53:09.314Z,1.70
2022-10-11T19:55:36.777Z,1.20
2022-10-11T19:58:08.303Z,1.30
2022-10-11T20:00:35.900Z,1.57
2022-10-11T20:03:03.176Z,1.30
2022-10-11T20:05:30.636Z,1.30
2022-10-11T20:07:57.922Z,1.20
2022-10-11T20:10:25.196Z,1.47
2022-10-11T20:12:52.629Z,1.30
2022-10-11T20:15:19.919Z,1.20
2022-10-11T20:17:50.151Z,1.30
2022-10-11T20:20:18.260Z,1.60
2022-10-11T20:22:45.557Z,1.23
2022-10-11T20:25:12.908Z,1.33
2022-10-11T20:27:42.471Z,1.23
2022-10-11T20:30:10.094Z,1.70
2022-10-11T20:32:37.414Z,1.50
2022-10-11T20:35:04.848Z,1.60
2022-10-11T20:37:32.436Z,1.57
2022-10-11T20:39:59.899Z,1.27
2022-10-11T20:42:29.737Z,1.23
2022-10-11T20:44:57.325Z,1.47
2022-10-11T20:47:24.605Z,1.77
2022-10-11T20:49:51.942Z,1.47
2022-10-11T20:52:19.210Z,1.73
2022-10-11T20:54:46.532Z,1.87
2022-10-11T20:57:13.880Z,1.80
2022-10-11T20:59:41.171Z,1.53
2022-10-11T21:02:08.476Z,1.77
2022-10-11T21:04:35.762Z,1.20
2022-10-11T21:07:03.016Z,1.50
2022-10-11T21:09:30.318Z,1.50
2022-10-11T21:11:57.609Z,1.43
2022-10-11T21:14:24.960Z,1.73
2022-10-11T21:16:52.219Z,1.37
2022-10-11T21:19:19.524Z,1.63
2022-10-11T21:21:51.132Z,1.40
2022-10-11T21:24:21.422Z,1.63
2022-10-11T21:26:48.721Z,1.83
2022-10-11T21:29:16.016Z,1.53
2022-10-11T21:31:43.395Z,2.10
2022-10-11T21:34:10.722Z,1.63
2022-10-11T21:36:38.183Z,1.27
2022-10-11T21:39:05.606Z,1.57
2022-10-11T21:41:34.045Z,1.60
2022-10-11T21:44:01.644Z,1.33
2022-10-11T21:46:54.056Z,1.43
2022-10-11T21:49:17.581Z,1.37
2022-10-11T21:51:45.343Z,1.53
2022-10-11T21:54:12.673Z,1.50
2022-10-11T21:56:39.941Z,1.13
2022-10-11T21:59:11.093Z,1.63
2022-10-11T22:01:40.187Z,2.13
2022-10-11T22:04:07.706Z,1.20
2022-10-11T22:06:35.134Z,1.67
2022-10-11T22:09:03.705Z,1.60
2022-10-11T22:11:31.023Z,1.37
2022-10-11T22:13:58.704Z,1.23
2022-10-11T22:16:25.964Z,1.30
2022-10-11T22:18:56.374Z,1.43
2022-10-11T22:21:24.159Z,1.70
2022-10-11T22:23:52.731Z,1.60
2022-10-11T22:26:21.635Z,1.20
2022-10-11T22:28:49.543Z,1.90
2022-10-11T22:31:17.797Z,1.70
2022-10-11T22:36:19.006Z,1.87
2022-10-11T22:38:46.330Z,2.10
2022-10-11T22:41:13.629Z,1.60
2022-10-11T22:43:41.067Z,1.57
2022-10-11T22:46:08.418Z,1.83
2022-10-11T22:48:36.127Z,1.47
2022-10-11T22:51:03.709Z,1.73
2022-10-11T22:53:31.320Z,1.40
2022-10-11T22:55:58.946Z,1.43
2022-10-11T22:58:26.294Z,1.80
2022-10-11T23:00:53.610Z,1.47
2022-10-11T23:03:20.875Z,1.83
2022-10-11T23:05:57.967Z,1.57
2022-10-11T23:08:25.439Z,1.20
2022-10-11T23:10:53.333Z,1.57
2022-10-11T23:13:21.045Z,1.47
2022-10-11T23:15:48.306Z,1.57
2022-10-11T23:18:16.450Z,1.03
2022-10-11T23:20:43.755Z,1.50
2022-10-11T23:23:11.032Z,1.60
2022-10-11T23:25:38.345Z,1.57
2022-10-11T23:28:05.706Z,1.50
2022-10-11T23:30:32.978Z,1.80
2022-10-11T23:33:00.282Z,1.60
2022-10-11T23:35:27.546Z,1.20
2022-10-11T23:37:54.888Z,1.77
2022-10-11T23:40:22.229Z,1.80
2022-10-11T23:42:49.497Z,1.47
2022-10-11T23:45:16.908Z,1.40
2022-10-11T23:47:44.275Z,1.57
2022-10-11T23:50:11.571Z,1.47
2022-10-11T23:52:38.900Z,1.70
2022-10-11T23:55:06.302Z,1.40
2022-10-11T23:57:34.005Z,1.47
